Wetterdaten: Woche 21.11.16 - 27.11.16 (KW47)
Datum Zeit Temp. A. Feuchte A. Luftdruck Regen Wind Richtung Taupunkt Windchill Windben
21.11.2016 00:00 0,6 C 95 % 1007,5 hPa 0,0 l/m 0,1 km/h (0 Bft) O-SO -0,1 C 0,6 C 0,9 km/h (0 Bft)
21.11.2016 01:00 -0,0 C 95 % 1007,3 hPa 0,0 l/m 0,2 km/h (0 Bft) O-SO -0,7 C -0,0 C 1,3 km/h (1 Bft)
21.11.2016 02:00 -0,4 C 96 % 1006,9 hPa 0,0 l/m 0,1 km/h (0 Bft) O-SO -1,0 C -0,4 C 0,7 km/h (0 Bft)
21.11.2016 03:00 -0,6 C 96 % 1006,7 hPa 0,0 l/m 0,1 km/h (0 Bft) O-SO -1,1 C -0,6 C 0,4 km/h (0 Bft)
21.11.2016 04:00 -0,6 C 97 % 1006,0 hPa 0,0 l/m 0,0 km/h (0 Bft) O-SO -1,0 C -0,6 C 0,3 km/h (0 Bft)
21.11.2016 05:00 0,0 C 97 % 1005,6 hPa 0,0 l/m 0,6 km/h (0 Bft) O-SO -0,4 C 0,0 C 1,6 km/h (1 Bft)
21.11.2016 06:00 0,6 C 97 % 1005,5 hPa 0,0 l/m 1,3 km/h (1 Bft) W-SW 0,2 C 0,6 C 2,9 km/h (1 Bft)
21.11.2016 07:00 1,0 C 97 % 1004,8 hPa 0,0 l/m 0,1 km/h (0 Bft) W-SW 0,5 C 1,0 C 1,3 km/h (1 Bft)
21.11.2016 08:00 1,6 C 97 % 1005,0 hPa 0,0 l/m 0,4 km/h (0 Bft) N-NW 1,2 C 1,6 C 2,0 km/h (1 Bft)
21.11.2016 09:00 2,8 C 97 % 1004,7 hPa 0,0 l/m 0,1 km/h (0 Bft) N-NW 2,3 C 2,8 C 1,2 km/h (1 Bft)
21.11.2016 10:00 4,2 C 95 % 1004,2 hPa 0,0 l/m 0,2 km/h (0 Bft) N-NW 3,6 C 4,2 C 1,3 km/h (1 Bft)
21.11.2016 11:00 7,0 C 89 % 1003,7 hPa 0,0 l/m 0,6 km/h (0 Bft) N-NW 5,2 C 7,0 C 2,0 km/h (1 Bft)
21.11.2016 12:00 8,0 C 86 % 1003,7 hPa 0,0 l/m 0,3 km/h (0 Bft) N-NW 5,8 C 8,0 C 1,2 km/h (1 Bft)
21.11.2016 13:00 8,8 C 87 % 1003,8 hPa 0,0 l/m 0,6 km/h (0 Bft) O-NO 6,8 C 8,8 C 1,8 km/h (1 Bft)
21.11.2016 14:00 9,6 C 87 % 1004,1 hPa 0,0 l/m 0,6 km/h (0 Bft) O-NO 7,4 C 9,6 C 1,7 km/h (1 Bft)
21.11.2016 15:00 10,3 C 85 % 1004,3 hPa 0,0 l/m 0,6 km/h (0 Bft) N 7,9 C 10,3 C 1,6 km/h (1 Bft)
21.11.2016 16:00 9,3 C 89 % 1004,3 hPa 0,0 l/m 0,0 km/h (0 Bft) N 7,5 C 9,3 C 0,3 km/h (0 Bft)
21.11.2016 17:00 7,5 C 92 % 1004,7 hPa 0,0 l/m 0,0 km/h (0 Bft) N 6,3 C 7,5 C 0,2 km/h (0 Bft)
21.11.2016 18:00 6,5 C 95 % 1004,8 hPa 0,0 l/m 0,0 km/h (0 Bft) N 5,7 C 6,5 C 0,4 km/h (0 Bft)
21.11.2016 19:00 5,7 C 96 % 1004,9 hPa 0,0 l/m 0,3 km/h (0 Bft) O 5,1 C 5,7 C 1,5 km/h (1 Bft)
21.11.2016 20:00 5,3 C 96 % 1004,8 hPa 0,0 l/m 0,1 km/h (0 Bft) O 4,8 C 5,3 C 1,1 km/h (0 Bft)
21.11.2016 21:00 5,3 C 97 % 1004,7 hPa 0,0 l/m 0,1 km/h (0 Bft) O 4,8 C 5,3 C 0,5 km/h (0 Bft)
21.11.2016 22:00 5,3 C 97 % 1005,0 hPa 0,0 l/m 0,2 km/h (0 Bft) O 4,9 C 5,3 C 1,2 km/h (1 Bft)
21.11.2016 23:00 5,6 C 97 % 1005,4 hPa 0,0 l/m 0,2 km/h (0 Bft) O 5,1 C 5,6 C 1,5 km/h (1 Bft)
22.11.2016 00:00 5,6 C 97 % 1006,3 hPa 0,0 l/m 0,3 km/h (0 Bft) N 5,2 C 5,6 C 1,1 km/h (1 Bft)
22.11.2016 01:00 5,6 C 97 % 1007,0 hPa 0,0 l/m 0,1 km/h (0 Bft) SO 5,2 C 5,6 C 0,9 km/h (0 Bft)
22.11.2016 02:00 5,0 C 97 % 1008,2 hPa 0,0 l/m 0,5 km/h (0 Bft) SO 4,6 C 5,0 C 2,5 km/h (1 Bft)
22.11.2016 03:00 5,4 C 97 % 1009,2 hPa 0,0 l/m 1,1 km/h (0 Bft) SO 5,0 C 5,4 C 3,2 km/h (1 Bft)
22.11.2016 04:00 5,5 C 97 % 1009,9 hPa 0,0 l/m 0,4 km/h (0 Bft) S 5,1 C 5,5 C 1,6 km/h (1 Bft)
22.11.2016 05:00 5,3 C 97 % 1010,5 hPa 0,0 l/m 0,4 km/h (0 Bft) O-NO 4,9 C 5,3 C 1,2 km/h (1 Bft)
22.11.2016 06:00 4,9 C 97 % 1010,9 hPa 0,0 l/m 0,1 km/h (0 Bft) O-NO 4,5 C 4,9 C 0,9 km/h (0 Bft)
22.11.2016 07:00 4,4 C 97 % 1011,7 hPa 0,0 l/m 0,1 km/h (0 Bft) O-NO 4,0 C 4,4 C 0,7 km/h (0 Bft)
22.11.2016 08:00 4,1 C 97 % 1012,2 hPa 0,0 l/m 0,0 km/h (0 Bft) O-NO 3,7 C 4,1 C 0,4 km/h (0 Bft)
22.11.2016 09:00 4,8 C 98 % 1012,6 hPa 0,0 l/m 0,1 km/h (0 Bft) O-NO 4,5 C 4,8 C 0,7 km/h (0 Bft)
22.11.2016 10:00 5,8 C 98 % 1013,2 hPa 0,0 l/m 0,4 km/h (0 Bft) O-NO 5,5 C 5,8 C 1,6 km/h (1 Bft)
22.11.2016 11:00 7,0 C 97 % 1013,3 hPa 0,0 l/m 0,5 km/h (0 Bft) O-NO 6,6 C 7,0 C 1,2 km/h (1 Bft)
22.11.2016 12:00 7,7 C 95 % 1012,9 hPa 0,0 l/m 0,4 km/h (0 Bft) O-NO 6,9 C 7,7 C 1,9 km/h (1 Bft)
22.11.2016 13:00 9,0 C 89 % 1012,4 hPa 0,0 l/m 1,1 km/h (1 Bft) W-NW 7,4 C 9,0 C 3,5 km/h (1 Bft)
22.11.2016 14:00 9,7 C 84 % 1012,2 hPa 0,0 l/m 1,2 km/h (1 Bft) W 7,1 C 9,7 C 4,4 km/h (1 Bft)
22.11.2016 15:00 9,8 C 81 % 1012,2 hPa 0,0 l/m 0,9 km/h (0 Bft) W-SW 6,8 C 9,8 C 3,7 km/h (1 Bft)
22.11.2016 16:00 8,7 C 87 % 1012,5 hPa 0,0 l/m 0,0 km/h (0 Bft) W-SW 6,6 C 8,7 C 0,4 km/h (0 Bft)
22.11.2016 17:00 7,2 C 92 % 1012,9 hPa 0,0 l/m 0,1 km/h (0 Bft) W-SW 6,0 C 7,2 C 0,5 km/h (0 Bft)
22.11.2016 18:00 6,5 C 94 % 1013,2 hPa 0,0 l/m 0,1 km/h (0 Bft) W-SW 5,6 C 6,5 C 0,7 km/h (0 Bft)
22.11.2016 19:00 5,8 C 95 % 1014,0 hPa 0,0 l/m 0,1 km/h (0 Bft) W-SW 5,1 C 5,8 C 0,7 km/h (0 Bft)
22.11.2016 20:00 5,4 C 96 % 1014,6 hPa 0,0 l/m 0,1 km/h (0 Bft) W-SW 4,8 C 5,4 C 0,8 km/h (0 Bft)
22.11.2016 21:00 5,0 C 96 % 1014,9 hPa 0,0 l/m 0,1 km/h (0 Bft) W-SW 4,4 C 5,0 C 0,5 km/h (0 Bft)
22.11.2016 22:00 4,7 C 97 % 1015,2 hPa 0,0 l/m 0,5 km/h (0 Bft) W-SW 4,2 C 4,7 C 2,3 km/h (1 Bft)
22.11.2016 23:00 4,1 C 96 % 1015,4 hPa 0,0 l/m 0,2 km/h (0 Bft) W-SW 3,6 C 4,1 C 1,1 km/h (0 Bft)
23.11.2016 00:00 3,2 C 96 % 1015,7 hPa 0,0 l/m 0,4 km/h (0 Bft) W-SW 2,7 C 3,2 C 0,8 km/h (0 Bft)
23.11.2016 01:00 2,4 C 97 % 1015,8 hPa 0,0 l/m 0,1 km/h (0 Bft) W-SW 1,9 C 2,4 C 0,5 km/h (0 Bft)
23.11.2016 02:00 2,0 C 97 % 1016,1 hPa 0,0 l/m 0,1 km/h (0 Bft) W-SW 1,6 C 2,0 C 0,5 km/h (0 Bft)
23.11.2016 03:00 1,8 C 97 % 1015,9 hPa 0,0 l/m 0,0 km/h (0 Bft) W-SW 1,4 C 1,8 C 0,4 km/h (0 Bft)
23.11.2016 04:00 1,6 C 97 % 1016,1 hPa 0,0 l/m 0,1 km/h (0 Bft) W-SW 1,1 C 1,6 C 0,7 km/h (0 Bft)
23.11.2016 05:00 1,8 C 98 % 1016,4 hPa 0,0 l/m 0,0 km/h (0 Bft) W-SW 1,5 C 1,8 C 0,2 km/h (0 Bft)
23.11.2016 06:00 2,1 C 98 % 1016,4 hPa 0,0 l/m 0,0 km/h (0 Bft) W-SW 1,8 C 2,1 C 0,5 km/h (0 Bft)
23.11.2016 07:00 2,4 C 98 % 1016,5 hPa 0,0 l/m 0,0 km/h (0 Bft) W-SW 2,2 C 2,4 C 0,3 km/h (0 Bft)
23.11.2016 08:00 2,8 C 98 % 1017,1 hPa 0,0 l/m 0,0 km/h (0 Bft) W-SW 2,5 C 2,8 C 0,5 km/h (0 Bft)
23.11.2016 09:00 3,5 C 98 % 1017,3 hPa 0,0 l/m 0,3 km/h (0 Bft) W-SW 3,2 C 3,5 C 1,3 km/h (1 Bft)
23.11.2016 10:00 4,3 C 98 % 1017,3 hPa 0,0 l/m 0,0 km/h (0 Bft) W-SW 4,0 C 4,3 C 0,0 km/h (0 Bft)
23.11.2016 11:00 5,5 C 98 % 1017,0 hPa 0,0 l/m 0,1 km/h (0 Bft) W-SW 5,2 C 5,5 C 0,5 km/h (0 Bft)
23.11.2016 12:00 6,5 C 98 % 1016,8 hPa 0,0 l/m 0,1 km/h (0 Bft) W-SW 6,2 C 6,5 C 0,6 km/h (0 Bft)
23.11.2016 13:00 7,5 C 97 % 1016,4 hPa 0,0 l/m 0,1 km/h (0 Bft) W-SW 7,1 C 7,5 C 0,7 km/h (0 Bft)
23.11.2016 14:00 7,9 C 96 % 1016,4 hPa 0,0 l/m 0,1 km/h (0 Bft) W-SW 7,3 C 7,9 C 0,4 km/h (0 Bft)
23.11.2016 15:00 8,0 C 95 % 1016,4 hPa 0,0 l/m 0,0 km/h (0 Bft) W-SW 7,3 C 8,0 C 0,3 km/h (0 Bft)
23.11.2016 16:00 7,3 C 96 % 1016,4 hPa 0,0 l/m 0,2 km/h (0 Bft) W-SW 6,7 C 7,3 C 0,9 km/h (0 Bft)
23.11.2016 17:00 6,2 C 96 % 1016,7 hPa 0,0 l/m 0,2 km/h (0 Bft) W-SW 5,7 C 6,2 C 0,9 km/h (0 Bft)
23.11.2016 18:00 5,4 C 96 % 1016,8 hPa 0,0 l/m 0,1 km/h (0 Bft) W-SW 4,9 C 5,4 C 0,5 km/h (0 Bft)
23.11.2016 19:00 4,3 C 97 % 1016,8 hPa 0,0 l/m 0,0 km/h (0 Bft) W-SW 3,9 C 4,3 C 0,4 km/h (0 Bft)
23.11.2016 20:00 3,8 C 98 % 1016,5 hPa 0,0 l/m 0,0 km/h (0 Bft) W-SW 3,5 C 3,8 C 0,0 km/h (0 Bft)
23.11.2016 21:00 3,8 C 98 % 1016,6 hPa 0,0 l/m 0,0 km/h (0 Bft) W-SW 3,5 C 3,8 C 0,1 km/h (0 Bft)
23.11.2016 22:00 3,5 C 98 % 1016,3 hPa 0,0 l/m 0,0 km/h (0 Bft) W-SW 3,2 C 3,5 C 0,1 km/h (0 Bft)
23.11.2016 23:00 3,0 C 98 % 1016,2 hPa 0,0 l/m 0,0 km/h (0 Bft) W-SW 2,7 C 3,0 C 0,3 km/h (0 Bft)
24.11.2016 00:00 2,3 C 97 % 1016,3 hPa 0,0 l/m 0,0 km/h (0 Bft) W-SW 1,9 C 2,3 C 0,2 km/h (0 Bft)
24.11.2016 01:00 1,6 C 98 % 1016,0 hPa 0,0 l/m 0,2 km/h (0 Bft) W-SW 1,3 C 1,6 C 0,9 km/h (0 Bft)
24.11.2016 02:00 1,1 C 98 % 1016,0 hPa 0,0 l/m 0,1 km/h (0 Bft) W-SW 0,8 C 1,1 C 0,4 km/h (0 Bft)
24.11.2016 03:00 0,6 C 98 % 1015,6 hPa 0,0 l/m 0,0 km/h (0 Bft) W-SW 0,4 C 0,6 C 0,4 km/h (0 Bft)
24.11.2016 04:00 0,1 C 98 % 1015,4 hPa 0,0 l/m 0,0 km/h (0 Bft) W-SW -0,2 C 0,1 C 0,0 km/h (0 Bft)
24.11.2016 05:00 -0,4 C 98 % 1015,2 hPa 0,0 l/m 0,1 km/h (0 Bft) W-SW -0,7 C -0,4 C 0,5 km/h (0 Bft)
24.11.2016 06:00 -0,6 C 98 % 1015,1 hPa 0,0 l/m 0,1 km/h (0 Bft) W-SW -0,9 C -0,6 C 0,4 km/h (0 Bft)
24.11.2016 07:00 -0,8 C 98 % 1015,3 hPa 0,0 l/m 0,0 km/h (0 Bft) W-SW -1,1 C -0,8 C 0,3 km/h (0 Bft)
24.11.2016 08:00 -0,3 C 98 % 1016,1 hPa 0,0 l/m 0,1 km/h (0 Bft) W-SW -0,6 C -0,3 C 1,1 km/h (0 Bft)
24.11.2016 09:00 0,6 C 98 % 1016,4 hPa 0,0 l/m 0,0 km/h (0 Bft) W-SW 0,4 C 0,6 C 0,8 km/h (0 Bft)
24.11.2016 10:00 2,5 C 99 % 1016,7 hPa 0,0 l/m 0,2 km/h (0 Bft) W-SW 2,3 C 2,5 C 1,3 km/h (1 Bft)
24.11.2016 11:00 5,4 C 99 % 1016,4 hPa 0,0 l/m 1,6 km/h (1 Bft) W-SW 5,2 C 5,4 C 4,1 km/h (1 Bft)
24.11.2016 12:00 5,5 C 99 % 1016,4 hPa 0,0 l/m 3,5 km/h (1 Bft) NW 5,3 C 5,5 C 6,6 km/h (2 Bft)
24.11.2016 13:00 5,1 C 96 % 1016,2 hPa 0,0 l/m 3,7 km/h (1 Bft) W-NW 4,6 C 5,1 C 10,6 km/h (2 Bft)
24.11.2016 14:00 4,9 C 96 % 1016,0 hPa 0,0 l/m 3,2 km/h (1 Bft) S-SW 4,3 C 4,9 C 9,5 km/h (2 Bft)
24.11.2016 15:00 5,1 C 97 % 1015,8 hPa 0,0 l/m 2,5 km/h (1 Bft) S-SO 4,6 C 5,1 C 6,9 km/h (2 Bft)
24.11.2016 16:00 5,4 C 97 % 1016,1 hPa 0,0 l/m 2,0 km/h (1 Bft) SW 4,9 C 5,4 C 6,4 km/h (2 Bft)
24.11.2016 17:00 5,7 C 95 % 1016,6 hPa 0,0 l/m 3,0 km/h (1 Bft) S-SW 5,0 C 5,7 C 7,2 km/h (2 Bft)
24.11.2016 18:00 5,5 C 95 % 1016,7 hPa 0,0 l/m 3,7 km/h (1 Bft) S-SW 4,8 C 5,5 C 10,3 km/h (2 Bft)
24.11.2016 19:00 4,9 C 96 % 1016,6 hPa 0,0 l/m 4,0 km/h (1 Bft) SW 4,3 C 4,9 C 11,0 km/h (2 Bft)
24.11.2016 20:00 4,5 C 96 % 1016,7 hPa 0,0 l/m 4,5 km/h (1 Bft) SW 4,0 C 4,5 C 13,6 km/h (3 Bft)
24.11.2016 21:00 4,3 C 96 % 1017,0 hPa 0,0 l/m 4,6 km/h (1 Bft) SW 3,7 C 4,3 C 11,8 km/h (2 Bft)
24.11.2016 22:00 4,3 C 95 % 1016,7 hPa 0,0 l/m 4,3 km/h (1 Bft) NW 3,5 C 4,3 C 13,0 km/h (3 Bft)
24.11.2016 23:00 4,6 C 95 % 1016,4 hPa 0,0 l/m 5,1 km/h (1 Bft) W-SW 3,8 C 4,4 C 14,8 km/h (3 Bft)
25.11.2016 00:00 4,8 C 95 % 1016,0 hPa 0,0 l/m 6,1 km/h (2 Bft) W 4,0 C 4,5 C 14,1 km/h (3 Bft)
25.11.2016 01:00 4,7 C 95 % 1015,5 hPa 0,0 l/m 6,9 km/h (2 Bft) S-SW 4,0 C 4,0 C 18,1 km/h (3 Bft)
25.11.2016 02:00 4,7 C 95 % 1015,2 hPa 0,0 l/m 6,3 km/h (2 Bft) S-SW 4,0 C 4,3 C 17,7 km/h (3 Bft)
25.11.2016 03:00 4,8 C 95 % 1014,8 hPa 0,0 l/m 6,1 km/h (2 Bft) W-NW 4,1 C 4,6 C 16,5 km/h (3 Bft)
25.11.2016 04:00 4,8 C 95 % 1014,2 hPa 0,0 l/m 7,7 km/h (2 Bft) W 4,1 C 3,7 C 20,4 km/h (4 Bft)
25.11.2016 05:00 4,8 C 94 % 1013,9 hPa 0,0 l/m 6,7 km/h (2 Bft) SW 3,9 C 4,1 C 18,0 km/h (3 Bft)
25.11.2016 06:00 4,7 C 94 % 1013,7 hPa 0,0 l/m 5,6 km/h (2 Bft) W 3,8 C 4,2 C 13,6 km/h (3 Bft)
25.11.2016 07:00 4,7 C 94 % 1013,8 hPa 0,0 l/m 5,3 km/h (1 Bft) S-SW 3,8 C 4,6 C 15,2 km/h (3 Bft)
25.11.2016 08:00 4,7 C 94 % 1014,2 hPa 0,0 l/m 6,6 km/h (2 Bft) S-SW 3,7 C 4,3 C 17,0 km/h (3 Bft)
25.11.2016 09:00 4,6 C 94 % 1014,7 hPa 0,0 l/m 6,6 km/h (2 Bft) S-SW 3,7 C 4,0 C 17,7 km/h (3 Bft)
25.11.2016 10:00 4,6 C 93 % 1015,1 hPa 0,0 l/m 4,9 km/h (1 Bft) W-NW 3,7 C 4,6 C 14,0 km/h (3 Bft)
25.11.2016 11:00 4,9 C 92 % 1015,5 hPa 0,0 l/m 4,7 km/h (1 Bft) S-SW 3,7 C 4,9 C 12,2 km/h (2 Bft)
25.11.2016 12:00 5,0 C 91 % 1015,5 hPa 0,0 l/m 5,0 km/h (1 Bft) S-SW 3,7 C 5,0 C 10,5 km/h (2 Bft)
25.11.2016 13:00 5,1 C 91 % 1015,8 hPa 0,0 l/m 3,6 km/h (1 Bft) W 3,7 C 5,1 C 10,6 km/h (2 Bft)
25.11.2016 14:00 5,2 C 91 % 1016,4 hPa 0,0 l/m 2,2 km/h (1 Bft) SW 3,8 C 5,2 C 7,1 km/h (2 Bft)
25.11.2016 15:00 5,2 C 91 % 1016,7 hPa 0,0 l/m 1,3 km/h (1 Bft) SW 3,9 C 5,2 C 5,3 km/h (1 Bft)
25.11.2016 16:00 5,1 C 92 % 1017,0 hPa 0,0 l/m 1,1 km/h (0 Bft) SW 3,9 C 5,1 C 3,9 km/h (1 Bft)
25.11.2016 17:00 4,9 C 94 % 1017,5 hPa 0,0 l/m 0,4 km/h (0 Bft) N 3,9 C 4,9 C 1,6 km/h (1 Bft)
25.11.2016 18:00 4,8 C 94 % 1017,8 hPa 0,0 l/m 0,5 km/h (0 Bft) W-SW 4,0 C 4,8 C 2,1 km/h (1 Bft)
25.11.2016 19:00 4,7 C 95 % 1017,8 hPa 0,0 l/m 0,2 km/h (0 Bft) W-SW 4,0 C 4,7 C 1,6 km/h (1 Bft)
25.11.2016 20:00 4,6 C 96 % 1017,6 hPa 0,0 l/m 0,3 km/h (0 Bft) W-SW 4,0 C 4,6 C 1,9 km/h (1 Bft)
25.11.2016 21:00 4,6 C 96 % 1017,8 hPa 0,0 l/m 0,2 km/h (0 Bft) S-SW 4,0 C 4,6 C 1,6 km/h (1 Bft)
25.11.2016 22:00 4,6 C 96 % 1017,7 hPa 0,0 l/m 0,5 km/h (0 Bft) S-SW 4,0 C 4,6 C 2,8 km/h (1 Bft)
25.11.2016 23:00 4,6 C 95 % 1018,0 hPa 0,0 l/m 0,2 km/h (0 Bft) N-NW 3,9 C 4,6 C 1,5 km/h (1 Bft)
26.11.2016 00:00 4,6 C 95 % 1017,9 hPa 0,0 l/m 0,0 km/h (0 Bft) N-NW 3,9 C 4,6 C 0,7 km/h (0 Bft)
26.11.2016 01:00 4,5 C 96 % 1017,7 hPa 0,0 l/m 0,3 km/h (0 Bft) N-NW 3,8 C 4,5 C 2,1 km/h (1 Bft)
26.11.2016 02:00 4,3 C 95 % 1018,1 hPa 0,0 l/m 0,3 km/h (0 Bft) N 3,6 C 4,3 C 1,6 km/h (1 Bft)
26.11.2016 03:00 4,2 C 96 % 1017,9 hPa 0,0 l/m 0,0 km/h (0 Bft) N 3,6 C 4,2 C 0,4 km/h (0 Bft)
26.11.2016 04:00 4,1 C 96 % 1017,6 hPa 0,0 l/m 0,0 km/h (0 Bft) N 3,6 C 4,1 C 0,3 km/h (0 Bft)
26.11.2016 05:00 4,1 C 97 % 1017,6 hPa 0,0 l/m 0,0 km/h (0 Bft) N 3,6 C 4,1 C 0,3 km/h (0 Bft)
26.11.2016 06:00 4,1 C 96 % 1017,7 hPa 0,0 l/m 0,2 km/h (0 Bft) N 3,5 C 4,1 C 1,5 km/h (1 Bft)
26.11.2016 07:00 4,1 C 96 % 1017,5 hPa 0,0 l/m 0,1 km/h (0 Bft) NW 3,5 C 4,1 C 1,1 km/h (0 Bft)
26.11.2016 08:00 4,1 C 96 % 1017,6 hPa 0,0 l/m 0,0 km/h (0 Bft) NW 3,6 C 4,1 C 0,4 km/h (0 Bft)
26.11.2016 09:00 4,4 C 96 % 1017,7 hPa 0,0 l/m 0,3 km/h (0 Bft) NW 3,8 C 4,4 C 2,0 km/h (1 Bft)
26.11.2016 10:00 4,8 C 95 % 1017,5 hPa 0,0 l/m 0,8 km/h (0 Bft) NW 4,1 C 4,8 C 3,1 km/h (1 Bft)
26.11.2016 11:00 5,1 C 94 % 1017,3 hPa 0,0 l/m 0,8 km/h (0 Bft) W 4,3 C 5,1 C 2,5 km/h (1 Bft)
26.11.2016 12:00 5,2 C 94 % 1017,2 hPa 0,0 l/m 1,0 km/h (0 Bft) W-NW 4,3 C 5,2 C 2,4 km/h (1 Bft)
26.11.2016 13:00 5,4 C 94 % 1017,1 hPa 0,0 l/m 0,4 km/h (0 Bft) W-NW 4,6 C 5,4 C 1,9 km/h (1 Bft)
26.11.2016 14:00 5,9 C 94 % 1016,7 hPa 0,0 l/m 0,4 km/h (0 Bft) W-NW 4,9 C 5,9 C 1,9 km/h (1 Bft)
26.11.2016 15:00 5,9 C 93 % 1017,0 hPa 0,0 l/m 0,9 km/h (0 Bft) N 4,8 C 5,9 C 2,9 km/h (1 Bft)
26.11.2016 16:00 5,6 C 95 % 1017,1 hPa 0,0 l/m 1,0 km/h (0 Bft) NO 4,8 C 5,6 C 2,9 km/h (1 Bft)
26.11.2016 17:00 5,3 C 96 % 1017,1 hPa 0,0 l/m 0,2 km/h (0 Bft) NO 4,7 C 5,3 C 1,2 km/h (1 Bft)
26.11.2016 18:00 5,3 C 96 % 1017,2 hPa 0,0 l/m 0,4 km/h (0 Bft) NO 4,8 C 5,3 C 1,5 km/h (1 Bft)
26.11.2016 19:00 5,3 C 97 % 1017,3 hPa 0,0 l/m 0,8 km/h (0 Bft) O 4,9 C 5,3 C 2,8 km/h (1 Bft)
26.11.2016 20:00 5,4 C 97 % 1017,3 hPa 0,0 l/m 0,1 km/h (0 Bft) N 4,9 C 5,4 C 1,2 km/h (1 Bft)
26.11.2016 21:00 5,4 C 97 % 1017,4 hPa 0,0 l/m 0,0 km/h (0 Bft) N 5,0 C 5,4 C 0,1 km/h (0 Bft)
26.11.2016 22:00 5,4 C 98 % 1017,5 hPa 0,3 l/m 0,0 km/h (0 Bft) N 5,1 C 5,4 C 0,1 km/h (0 Bft)
26.11.2016 23:00 5,4 C 98 % 1017,5 hPa 0,0 l/m 0,0 km/h (0 Bft) N 5,1 C 5,4 C 0,3 km/h (0 Bft)
27.11.2016 00:00 5,5 C 98 % 1017,5 hPa 0,0 l/m 0,0 km/h (0 Bft) N 5,2 C 5,5 C 0,2 km/h (0 Bft)
27.11.2016 01:00 5,4 C 98 % 1017,0 hPa 0,0 l/m 0,0 km/h (0 Bft) N 5,1 C 5,4 C 0,5 km/h (0 Bft)
27.11.2016 02:00 5,6 C 98 % 1017,1 hPa 0,0 l/m 0,0 km/h (0 Bft) N 5,3 C 5,6 C 0,0 km/h (0 Bft)
27.11.2016 03:00 5,6 C 98 % 1017,1 hPa 0,0 l/m 0,0 km/h (0 Bft) N 5,3 C 5,6 C 0,5 km/h (0 Bft)
27.11.2016 04:00 5,6 C 98 % 1017,0 hPa 0,0 l/m 0,0 km/h (0 Bft) N 5,3 C 5,6 C 0,1 km/h (0 Bft)
27.11.2016 05:00 5,4 C 98 % 1017,1 hPa 0,3 l/m 0,2 km/h (0 Bft) N 5,1 C 5,4 C 1,0 km/h (0 Bft)
27.11.2016 06:00 5,3 C 98 % 1017,1 hPa 0,0 l/m 0,0 km/h (0 Bft) N 4,9 C 5,3 C 0,8 km/h (0 Bft)
27.11.2016 07:00 5,1 C 98 % 1017,3 hPa 0,0 l/m 0,0 km/h (0 Bft) N 4,8 C 5,1 C 0,3 km/h (0 Bft)
27.11.2016 08:00 5,1 C 98 % 1017,6 hPa 0,0 l/m 0,1 km/h (0 Bft) N 4,8 C 5,1 C 0,7 km/h (0 Bft)
27.11.2016 09:00 4,7 C 97 % 1017,8 hPa 0,0 l/m 2,1 km/h (1 Bft) W-NW 4,3 C 4,7 C 6,6 km/h (2 Bft)
27.11.2016 10:00 4,4 C 97 % 1018,2 hPa 0,0 l/m 1,5 km/h (1 Bft) W-NW 3,9 C 4,4 C 4,7 km/h (1 Bft)
27.11.2016 11:00 4,6 C 94 % 1018,2 hPa 0,0 l/m 1,5 km/h (1 Bft) W 3,8 C 4,6 C 4,2 km/h (1 Bft)
27.11.2016 12:00 4,8 C 93 % 1017,8 hPa 0,0 l/m 1,7 km/h (1 Bft) W 3,8 C 4,8 C 4,0 km/h (1 Bft)
27.11.2016 13:00 5,5 C 90 % 1017,1 hPa 0,0 l/m 1,6 km/h (1 Bft) W-NW 3,9 C 5,5 C 4,2 km/h (1 Bft)
27.11.2016 14:00 5,6 C 88 % 1017,0 hPa 0,0 l/m 1,4 km/h (1 Bft) NW 3,7 C 5,6 C 4,4 km/h (1 Bft)
27.11.2016 15:00 5,2 C 89 % 1016,9 hPa 0,0 l/m 0,9 km/h (0 Bft) S-SW 3,5 C 5,2 C 3,6 km/h (1 Bft)
27.11.2016 16:00 4,8 C 91 % 1017,1 hPa 0,0 l/m 1,3 km/h (1 Bft) W-NW 3,4 C 4,8 C 3,9 km/h (1 Bft)
27.11.2016 17:00 4,2 C 94 % 1017,8 hPa 0,0 l/m 2,0 km/h (1 Bft) NW 3,2 C 4,2 C 5,0 km/h (1 Bft)
27.11.2016 18:00 3,8 C 94 % 1018,3 hPa 0,0 l/m 2,7 km/h (1 Bft) NW 2,9 C 3,8 C 6,4 km/h (2 Bft)
27.11.2016 19:00 3,4 C 91 % 1018,8 hPa 0,3 l/m 3,7 km/h (1 Bft) W 2,2 C 3,4 C 10,9 km/h (2 Bft)
27.11.2016 20:00 2,9 C 91 % 1019,2 hPa 0,0 l/m 3,1 km/h (1 Bft) NW 1,6 C 2,9 C 8,4 km/h (2 Bft)
27.11.2016 21:00 2,8 C 91 % 1019,3 hPa 0,0 l/m 2,7 km/h (1 Bft) W 1,4 C 2,8 C 7,6 km/h (2 Bft)
27.11.2016 22:00 2,6 C 91 % 1019,2 hPa 0,0 l/m 3,2 km/h (1 Bft) SW 1,3 C 2,6 C 9,3 km/h (2 Bft)
27.11.2016 23:00 2,1 C 91 % 1019,2 hPa 0,0 l/m 2,8 km/h (1 Bft) W 0,8 C 2,1 C 7,9 km/h (2 Bft)
Min-Datum _ 24.11.16 22.11.16 21.11.16 - 27.11.16 - 21.11.16 24.11.16 27.11.16
_ Min-Zeit 07:10 15:30 12:25 - 12:12 - 02:45 07:10 08:00
Minimum _ -0,8 C 80 % 1003,4 hPa - 0,0 km/h (0 Bft) - -1,3 C -0,8 C 0,0 km/h (0 Bft)
Max-Datum _ 21.11.16 24.11.16 27.11.16 27.11.16 25.11.16 - 21.11.16 21.11.16 25.11.16
_ Max-Zeit 15:16 12:05 21:20 19:35 06:00 - 15:37 15:16 04:45
Maximum _ 10,5 C 99 % 1019,4 hPa 0,3 l/m 11,3 km/h
W (2 Bft)
- 8,2 C 10,5 C 32,2 km/h
SW (5 Bft)
Durchschnitt _ 4,6 C 95 % 1014,4 hPa #0,8 l/m 1,2 km/h (1 Bft) W-SW 3,8 C 4,5 C 3,5 km/h (1 Bft)